Time;durP1;ratioP1;P1;durP2;ratioP2;P2;SDS_P1;SDS_P2;PMS_P1;PMS_P2;Temp;Humidity;BMP_temperature;BMP_pressure;BME280_temperature;BME280_humidity;BME280_pressure;Samples;Min_cycle;Max_cycle;Signal;HPM_P1;HPM_P2
2022/06/18 06:26:27;;;;;;;2.70;1.75;;;;;;;22.82;45.06;101672.81;4912768;29;20127;-93
2022/06/18 06:28:52;;;;;;;3.72;1.80;;;;;;;23.00;45.18;101674.56;4908434;29;20040;-92
2022/06/18 06:31:18;;;;;;;2.47;1.52;;;;;;;23.11;44.83;101672.38;4911320;29;20071;-92
2022/06/18 06:33:44;;;;;;;1.50;1.40;;;;;;;23.21;43.73;101667.50;4913176;29;20056;-91
2022/06/18 06:36:11;;;;;;;2.70;1.70;;;;;;;23.38;43.61;101663.25;4912511;29;20115;-92
2022/06/18 06:38:38;;;;;;;3.47;1.42;;;;;;;23.54;43.57;101655.47;4909220;29;20028;-91
2022/06/18 06:41:10;;;;;;;5.18;1.40;;;;;;;23.67;42.64;101649.13;4909916;29;20040;-91
2022/06/18 06:43:35;;;;;;;4.68;1.60;;;;;;;23.78;42.60;101643.06;4910659;29;20522;-90
2022/06/18 06:46:03;;;;;;;3.03;1.50;;;;;;;23.84;41.74;101640.97;4908071;29;20064;-91
2022/06/18 06:48:29;;;;;;;1.67;1.48;;;;;;;23.93;41.58;101641.84;4913716;29;20217;-92
2022/06/18 06:50:55;;;;;;;2.95;1.90;;;;;;;24.00;41.14;101641.38;4910837;29;20028;-93
2022/06/18 06:53:23;;;;;;;3.53;1.58;;;;;;;24.05;40.94;101635.75;4907007;29;20024;-93
2022/06/18 06:58:33;;;;;;;2.40;2.05;;;;;;;24.19;40.77;101628.22;4910444;29;20071;-92
2022/06/18 07:01:02;;;;;;;3.75;1.38;;;;;;;24.26;40.55;101627.78;4907207;29;20087;-91
2022/06/18 07:03:31;;;;;;;3.33;1.40;;;;;;;24.45;40.70;101632.97;4909404;29;20083;-91
2022/06/18 07:05:59;;;;;;;2.28;1.50;;;;;;;24.51;40.63;101629.75;4911582;29;20188;-91
2022/06/18 07:08:25;;;;;;;1.80;1.50;;;;;;;24.57;40.42;101633.94;4907192;29;20115;-92
2022/06/18 07:10:51;;;;;;;2.00;1.63;;;;;;;24.60;40.54;101621.56;4908925;29;20027;-92
2022/06/18 07:13:18;;;;;;;1.67;1.48;;;;;;;24.70;40.57;101621.22;4907348;29;20079;-92
2022/06/18 07:15:47;;;;;;;2.13;1.70;;;;;;;24.77;40.16;101616.06;4904349;29;20024;-91
2022/06/18 07:18:20;;;;;;;4.63;1.60;;;;;;;24.81;40.13;101608.81;4907626;29;20032;-93
2022/06/18 07:20:46;;;;;;;2.03;1.45;;;;;;;24.95;40.29;101606.69;4910753;29;20036;-88
2022/06/18 07:23:11;;;;;;;2.35;1.65;;;;;;;25.02;40.39;101602.69;4904360;29;20031;-91
2022/06/18 07:25:38;;;;;;;5.88;1.70;;;;;;;25.13;40.20;101598.47;4907946;29;20550;-91
2022/06/18 07:28:05;;;;;;;2.85;1.67;;;;;;;25.23;40.24;101589.91;4908542;29;20032;-90
2022/06/18 07:30:30;;;;;;;4.32;1.63;;;;;;;25.37;40.35;101586.97;4906070;29;20522;-92
2022/06/18 07:32:56;;;;;;;2.63;1.30;;;;;;;25.56;40.18;101584.66;4910760;29;20055;-92
2022/06/18 07:35:26;;;;;;;3.25;1.50;;;;;;;25.73;39.45;101581.06;4914080;29;20103;-92
2022/06/18 07:37:54;;;;;;;1.70;1.42;;;;;;;25.84;39.34;101582.25;4909165;29;20034;-92
2022/06/18 07:40:20;;;;;;;1.77;1.60;;;;;;;25.88;38.92;101573.06;4911638;29;20024;-90
2022/06/18 07:42:48;;;;;;;4.97;1.77;;;;;;;25.98;38.79;101579.28;4913401;29;20040;-92
2022/06/18 07:45:23;;;;;;;11.10;2.00;;;;;;;26.01;37.91;101582.16;4912759;29;20034;-91
2022/06/18 07:47:50;;;;;;;3.08;1.52;;;;;;;26.16;38.54;101576.09;4909950;29;20034;-91
2022/06/18 07:50:20;;;;;;;4.05;1.92;;;;;;;26.25;38.41;101569.75;4911754;29;20024;-92
2022/06/18 07:52:46;;;;;;;3.55;1.40;;;;;;;26.33;38.12;101580.66;4906810;29;20035;-91
2022/06/18 07:55:24;;;;;;;3.30;1.50;;;;;;;26.32;37.01;101572.75;4908888;29;20028;-91
2022/06/18 07:57:52;;;;;;;3.65;1.63;;;;;;;26.41;37.71;101571.59;4907021;29;20028;-93
2022/06/18 08:00:20;;;;;;;1.80;1.67;;;;;;;26.52;37.82;101563.75;4907726;29;20028;-92
2022/06/18 08:02:47;;;;;;;4.85;1.35;;;;;;;26.67;37.41;101560.38;4905664;29;20162;-92
2022/06/18 08:05:20;;;;;;;3.25;1.67;;;;;;;26.73;36.81;101569.22;4909305;29;20024;-91
2022/06/18 08:07:46;;;;;;;3.50;1.73;;;;;;;26.87;36.91;101563.44;4909942;29;20028;-92
2022/06/18 08:10:12;;;;;;;6.55;1.85;;;;;;;26.94;36.98;101559.00;4908299;29;20028;-91
2022/06/18 08:12:40;;;;;;;2.42;1.58;;;;;;;26.97;36.67;101541.81;4908716;29;20031;-91
2022/06/18 08:15:07;;;;;;;2.55;1.55;;;;;;;27.09;36.45;101544.59;4907076;29;20043;-92
2022/06/18 08:17:32;;;;;;;1.33;1.10;;;;;;;27.17;36.20;101545.66;4907277;29;20020;-91
2022/06/18 08:19:58;;;;;;;2.50;1.40;;;;;;;27.27;36.04;101545.22;4909227;29;20046;-91
2022/06/18 08:22:24;;;;;;;4.20;1.50;;;;;;;27.41;35.90;101531.13;4907172;29;20481;-92
2022/06/18 08:24:51;;;;;;;3.85;1.30;;;;;;;27.45;35.17;101534.78;4910186;29;20032;-92
2022/06/18 15:02:19;;;;;;;9.13;3.00;;;;;;;36.11;23.96;101225.19;6401256;22;20067;-94
2022/06/18 15:04:51;;;;;;;11.18;3.47;;;;;;;37.20;23.26;101228.00;6279948;22;1456879;-90
2022/06/18 15:10:46;;;;;;;12.82;3.60;;;;;;;37.93;21.40;101238.56;6319610;22;20006;-92
2022/06/18 15:19:43;;;;;;;9.60;3.72;;;;;;;39.11;20.50;101233.63;6241881;23;20023;-92
2022/06/18 15:36:40;;;;;;;13.50;3.70;;;;;;;40.62;20.06;101227.56;6015313;23;20127;-93
2022/06/18 15:39:16;;;;;;;14.90;4.03;;;;;;;40.12;20.25;101216.88;6010924;23;20083;-93
2022/06/18 15:42:30;;;;;;;11.13;2.95;;;;;;;39.79;20.47;101221.69;6271334;22;20010;-93
2022/06/18 15:45:04;;;;;;;9.80;3.35;;;;;;;39.24;20.51;101212.13;6318025;22;20018;-93
2022/06/18 15:47:35;;;;;;;14.05;4.47;;;;;;;38.74;20.63;101220.75;6345299;22;20009;-93
2022/06/18 15:50:06;;;;;;;8.63;3.13;;;;;;;38.93;21.07;101223.56;6341366;22;20305;-93
2022/06/18 15:56:14;;;;;;;8.68;2.95;;;;;;;39.12;20.79;101215.59;6316869;22;20044;-92
2022/06/18 15:58:44;;;;;;;8.10;3.60;;;;;;;38.85;20.80;101232.53;6340739;22;19995;-93
2022/06/18 16:01:11;;;;;;;13.55;3.13;;;;;;;38.61;21.05;101227.00;6342695;22;20007;-91
2022/06/18 16:03:39;;;;;;;12.07;4.07;;;;;;;38.81;21.21;101226.22;6337433;22;20002;-90
2022/06/18 16:06:05;;;;;;;12.00;3.80;;;;;;;38.71;21.52;101224.44;6337036;22;20002;-91
2022/06/18 16:08:38;;;;;;;6.75;3.15;;;;;;;38.82;21.77;101253.03;6339588;22;20021;-90
2022/06/18 16:11:37;;;;;;;8.07;3.05;;;;;;;38.49;24.39;101252.03;6336915;22;20002;-93
2022/06/18 16:14:12;;;;;;;14.18;3.17;;;;;;;38.30;24.97;101259.16;6315682;22;20065;-93
2022/06/18 16:16:48;;;;;;;8.55;3.03;;;;;;;38.15;25.33;101255.78;6338292;22;19994;-93
2022/06/18 16:19:15;;;;;;;6.68;3.20;;;;;;;38.21;25.33;101268.09;6339058;22;20006;-93
2022/06/18 16:21:52;;;;;;;23.13;4.53;;;;;;;37.99;26.12;101262.03;6338396;22;20016;-89
2022/06/18 16:24:24;;;;;;;4.38;3.15;;;;;;;38.22;25.81;101274.47;6336065;22;20007;-93
2022/06/18 16:27:13;;;;;;;;;;;;;;;;;;;;;
2022/06/18 16:29:39;;;;;;;5.75;2.88;;;;;;;37.90;26.38;101286.97;6335482;22;20090;-92
2022/06/18 16:32:41;;;;;;;5.97;3.17;;;;;;;37.25;26.96;101297.38;6336693;22;19999;-90
2022/06/18 16:35:21;;;;;;;6.05;2.90;;;;;;;37.17;27.60;101295.91;6334723;22;20022;-93
2022/06/18 16:37:48;;;;;;;7.18;3.15;;;;;;;36.90;27.73;101304.19;6335871;22;19995;-93
2022/06/18 16:40:28;;;;;;;8.88;2.88;;;;;;;36.77;28.42;101301.09;6337167;22;20089;-93
2022/06/18 16:42:56;;;;;;;9.35;3.35;;;;;;;36.72;28.43;101304.34;6336481;22;20026;-91
2022/06/18 16:45:31;;;;;;;4.03;3.38;;;;;;;36.50;28.48;101300.97;6334761;22;20079;-92
2022/06/18 16:47:59;;;;;;;6.15;3.53;;;;;;;36.36;28.80;101303.88;6332583;22;20010;-90
2022/06/18 16:50:30;;;;;;;9.32;3.47;;;;;;;36.06;29.23;101301.69;6334272;22;20003;-92
2022/06/18 16:53:01;;;;;;;5.60;3.05;;;;;;;35.77;29.47;101297.50;6335347;22;20124;-88
2022/06/18 16:55:33;;;;;;;4.10;3.13;;;;;;;35.38;29.97;101301.28;6338036;22;20073;-91
2022/06/18 16:58:02;;;;;;;6.20;3.50;;;;;;;35.20;30.08;101300.53;6334838;22;20002;-91
2022/06/18 17:00:31;;;;;;;7.35;3.25;;;;;;;35.20;30.07;101301.31;6338418;22;20001;-92
2022/06/18 17:02:57;;;;;;;4.50;2.67;;;;;;;35.19;30.55;101304.50;6337462;22;20011;-91
2022/06/18 17:05:25;;;;;;;5.57;3.22;;;;;;;35.14;30.32;101300.94;6335179;22;20009;-91
2022/06/18 17:07:54;;;;;;;8.18;3.30;;;;;;;34.98;30.29;101313.72;6336604;22;19995;-91
2022/06/18 17:10:29;;;;;;;6.63;3.00;;;;;;;34.88;30.55;101320.91;6337905;22;20002;-93
2022/06/18 17:12:55;;;;;;;6.07;2.97;;;;;;;34.81;30.32;101324.44;6339113;22;20010;-93
2022/06/18 17:15:21;;;;;;;4.82;2.80;;;;;;;34.64;30.87;101321.69;6338003;22;20441;-92
2022/06/18 17:17:48;;;;;;;6.60;3.20;;;;;;;34.39;30.89;101325.28;6338567;22;20005;-92
2022/06/18 17:20:20;;;;;;;29.20;4.85;;;;;;;34.35;31.19;101324.50;6339956;22;20007;-93
2022/06/18 17:22:49;;;;;;;9.50;3.20;;;;;;;34.20;31.35;101329.22;6337313;22;19999;-92
2022/06/18 17:33:34;;;;;;;7.30;2.95;;;;;;;33.48;32.06;101326.63;6335979;22;20128;-91
2022/06/18 17:36:02;;;;;;;27.33;3.20;;;;;;;33.19;32.81;101329.22;6337683;22;20449;-92
2022/06/18 17:38:30;;;;;;;11.18;3.70;;;;;;;32.96;33.25;101320.38;6336775;22;20424;-92
2022/06/18 17:41:10;;;;;;;5.60;3.30;;;;;;;32.74;33.51;101328.53;6336151;22;20597;-92
2022/06/18 17:43:39;;;;;;;9.77;3.70;;;;;;;32.31;33.98;101332.91;6333883;22;20081;-89
2022/06/18 17:46:51;;;;;;;;;;;;;;;;;;;;;
2022/06/18 17:49:58;;;;;;;;;;;;;;;;;;;;;
2022/06/18 17:52:34;;;;;;;;;;;;;;;;;;;;;
2022/06/18 17:55:33;;;;;;;8.48;3.67;;;;;;;30.86;36.19;101345.69;6325107;22;20030;-89
2022/06/18 17:58:22;;;;;;;8.73;3.90;;;;;;;30.33;37.45;101360.19;6341597;22;20014;-90
2022/06/18 18:01:43;;;;;;;8.52;3.72;;;;;;;30.12;38.04;101354.28;6349283;22;20474;-91
2022/06/18 18:04:27;;;;;;;9.93;4.40;;;;;;;29.76;38.48;101364.59;6347283;22;20011;-93
2022/06/18 18:06:58;;;;;;;8.90;4.50;;;;;;;29.39;39.12;101363.38;6339224;22;20009;-92
2022/06/18 18:13:13;;;;;;;10.63;5.03;;;;;;;28.40;40.52;101365.34;6150675;23;20092;-93
2022/06/18 18:15:42;;;;;;;8.05;4.32;;;;;;;28.02;41.63;101359.56;6149848;23;20761;-92
2022/06/18 18:18:16;;;;;;;13.10;4.50;;;;;;;27.75;42.23;101374.91;6172411;23;20032;-92
2022/06/18 18:20:45;;;;;;;9.77;4.30;;;;;;;27.54;42.78;101369.56;6211155;23;20004;-91
2022/06/18 18:23:45;;;;;;;7.18;4.32;;;;;;;27.17;43.60;101374.31;6212364;23;20015;-92
2022/06/18 18:26:37;;;;;;;;;;;;;;;;;;;;;
2022/06/18 18:29:35;;;;;;;10.63;5.28;;;;;;;26.83;44.61;101389.28;6325002;22;20063;-92
2022/06/18 18:42:47;;;;;;;8.70;4.88;;;;;;;26.20;46.44;101383.97;6141485;22;20037;-91
2022/06/18 18:45:21;;;;;;;9.35;4.25;;;;;;;26.19;46.11;101390.59;6271944;22;20000;-91
2022/06/18 18:48:39;;;;;;;9.18;5.25;;;;;;;25.99;46.92;101385.94;6271614;22;20004;-93
2022/06/18 18:54:33;;;;;;;6.70;3.85;;;;;;;25.84;46.98;101385.41;6305239;22;20060;-92
2022/06/18 18:57:09;;;;;;;12.63;4.20;;;;;;;25.78;48.05;101394.22;6335556;22;20006;-93
2022/06/18 18:59:36;;;;;;;7.22;4.18;;;;;;;25.76;47.39;101393.75;6335554;22;20145;-91
2022/06/18 19:02:03;;;;;;;6.82;3.55;;;;;;;25.69;47.57;101398.97;6341167;22;20068;-93
2022/06/18 19:04:29;;;;;;;6.97;3.35;;;;;;;25.64;48.00;101394.44;6338092;22;20113;-90
2022/06/18 19:06:57;;;;;;;7.05;3.42;;;;;;;25.56;48.55;101389.81;6338158;22;20084;-93
2022/06/18 19:09:24;;;;;;;10.15;3.70;;;;;;;25.48;48.38;101405.19;6338070;22;20052;-93
2022/06/18 19:14:37;;;;;;;10.40;3.92;;;;;;;25.31;48.98;101405.28;6338583;22;20045;-92
2022/06/18 19:17:05;;;;;;;9.13;4.18;;;;;;;25.20;49.17;101406.84;6336419;22;19999;-92
2022/06/18 19:19:31;;;;;;;7.25;3.42;;;;;;;25.12;49.63;101407.66;6338080;22;19998;-93
2022/06/18 19:21:58;;;;;;;9.18;4.00;;;;;;;25.06;49.69;101406.25;6337911;22;20314;-92
2022/06/18 19:24:27;;;;;;;7.85;3.65;;;;;;;24.98;50.15;101408.69;6336728;22;20014;-91
2022/06/18 19:26:55;;;;;;;10.25;3.70;;;;;;;24.88;50.42;101406.28;6337159;22;20003;-91
2022/06/18 19:29:22;;;;;;;8.00;3.80;;;;;;;24.79;50.53;101412.97;6339801;22;20338;-91
2022/06/18 19:31:49;;;;;;;7.90;4.10;;;;;;;24.71;51.03;101411.84;6337799;22;20201;-92
2022/06/18 19:34:17;;;;;;;6.80;3.92;;;;;;;24.66;51.19;101423.78;6336985;22;20014;-93
2022/06/18 19:36:52;;;;;;;5.65;3.55;;;;;;;24.61;51.83;101428.66;6339063;22;19995;-93
2022/06/18 19:39:29;;;;;;;4.40;3.67;;;;;;;24.48;52.30;101432.38;6339971;22;19999;-92
2022/06/18 19:41:55;;;;;;;9.35;4.00;;;;;;;24.45;52.05;101433.84;6336694;22;20010;-91
2022/06/18 19:44:24;;;;;;;7.18;3.92;;;;;;;24.37;52.43;101429.97;6335707;22;20002;-92
2022/06/18 19:46:49;;;;;;;7.20;3.85;;;;;;;24.29;52.34;101436.28;6337639;22;20022;-92
2022/06/18 19:49:16;;;;;;;9.45;3.50;;;;;;;24.21;52.52;101428.00;6338177;22;19998;-92
2022/06/18 19:51:46;;;;;;;7.85;3.92;;;;;;;24.11;52.79;101421.75;6337547;22;20003;-92
2022/06/18 19:54:12;;;;;;;9.85;3.25;;;;;;;24.03;53.01;101419.00;6336833;22;19999;-92
2022/06/18 19:56:41;;;;;;;7.85;3.70;;;;;;;23.94;53.60;101416.28;6337590;22;20006;-92
2022/06/18 19:59:07;;;;;;;7.22;3.25;;;;;;;23.90;53.69;101417.25;6337376;22;20018;-91
2022/06/18 20:01:33;;;;;;;6.72;3.53;;;;;;;23.83;53.79;101417.72;6337157;22;20006;-91
2022/06/18 20:03:59;;;;;;;5.30;3.00;;;;;;;23.74;53.94;101415.00;6336229;22;20155;-92
2022/06/18 20:06:27;;;;;;;8.40;3.70;;;;;;;23.66;54.04;101407.56;6335459;22;20552;-92
2022/06/18 20:08:54;;;;;;;6.88;3.30;;;;;;;23.58;54.19;101408.38;6336768;22;20449;-92
2022/06/18 20:11:19;;;;;;;5.63;3.28;;;;;;;23.51;54.45;101410.72;6337289;22;20009;-91
2022/06/18 20:13:45;;;;;;;5.82;3.60;;;;;;;23.45;55.10;101403.81;6337141;22;20326;-92
2022/06/18 20:16:17;;;;;;;9.30;3.55;;;;;;;23.34;55.46;101408.78;6336462;22;20056;-92
2022/06/18 20:18:44;;;;;;;5.63;3.22;;;;;;;23.30;55.43;101406.97;6337671;22;20349;-93
2022/06/18 20:21:11;;;;;;;8.65;3.50;;;;;;;23.27;55.38;101411.16;6337306;22;20006;-92
2022/06/18 20:23:38;;;;;;;5.68;3.78;;;;;;;23.24;55.66;101411.00;6335840;22;20051;-92
2022/06/18 20:26:08;;;;;;;7.18;3.35;;;;;;;23.17;55.86;101409.53;6335267;22;20014;-92
2022/06/18 20:28:35;;;;;;;5.97;3.55;;;;;;;23.11;56.31;101413.53;6336990;22;20003;-92
2022/06/18 20:31:06;;;;;;;8.13;3.60;;;;;;;23.05;56.54;101413.97;6337710;22;19998;-92
2022/06/18 20:33:32;;;;;;;7.30;3.38;;;;;;;22.98;56.78;101414.44;6338263;22;20377;-92
2022/06/18 20:35:58;;;;;;;5.57;3.75;;;;;;;22.91;56.69;101420.34;6337542;22;19995;-92
2022/06/18 20:38:24;;;;;;;9.65;5.85;;;;;;;22.88;56.95;101421.00;6337526;22;20018;-92
2022/06/18 20:41:02;;;;;;;8.23;4.43;;;;;;;22.84;57.17;101417.28;6336877;22;20003;-91
2022/06/18 20:43:50;;;;;;;10.80;4.28;;;;;;;22.68;57.96;101415.22;6334980;22;20003;-92
2022/06/18 20:46:31;;;;;;;7.13;3.78;;;;;;;22.63;57.78;101415.38;6337457;22;20495;-92
2022/06/18 20:48:58;;;;;;;7.93;3.80;;;;;;;22.66;57.43;101414.75;6337911;22;20411;-92
2022/06/18 20:51:33;;;;;;;6.60;4.05;;;;;;;22.58;58.10;101417.09;6337438;22;19999;-92
2022/06/18 20:57:06;;;;;;;;;;;;;;;22.33;58.59;101417.75;6336610;22;20014;-92
2022/06/18 20:59:20;;;;;;;7.28;3.45;;;;;;;22.43;57.97;101414.75;6329941;22;20026;-87
2022/06/18 21:01:48;;;;;;;6.00;3.58;;;;;;;22.37;58.09;101413.28;6333509;22;20006;-88
2022/06/18 21:04:13;;;;;;;6.88;3.67;;;;;;;22.30;58.23;101421.09;6332150;22;20010;-88
2022/06/18 21:06:42;;;;;;;6.30;3.70;;;;;;;22.25;58.68;101407.56;6332245;22;20014;-87
2022/06/18 21:09:08;;;;;;;7.90;3.55;;;;;;;22.21;58.88;101403.84;6333831;22;20007;-87
2022/06/18 21:11:34;;;;;;;5.10;3.75;;;;;;;22.16;58.98;101399.31;6334065;22;20003;-86
2022/06/18 21:14:00;;;;;;;8.60;3.80;;;;;;;22.13;59.35;101399.16;6335050;22;20472;-88
2022/06/18 21:16:26;;;;;;;6.72;3.63;;;;;;;22.11;59.26;101396.72;6335540;22;20005;-88
2022/06/18 21:18:52;;;;;;;7.07;3.67;;;;;;;22.06;59.25;101396.81;6334964;22;20003;-86
2022/06/18 21:21:18;;;;;;;5.07;3.40;;;;;;;22.03;59.24;101392.78;6334231;22;20068;-87
2022/06/18 21:23:44;;;;;;;5.38;3.45;;;;;;;22.02;59.39;101393.88;6333366;22;20011;-87
2022/06/18 21:26:10;;;;;;;5.35;3.40;;;;;;;21.99;59.52;101389.06;6333820;22;20085;-88
2022/06/18 21:28:36;;;;;;;7.93;3.70;;;;;;;21.96;59.74;101395.13;6332991;22;20002;-87
2022/06/18 21:36:59;;;;;;;37.58;5.75;;;;;;;21.92;59.72;101388.69;6334129;22;20124;-87
2022/06/18 21:39:17;;;;;;;8.40;4.30;;;;;;;21.77;60.57;101374.59;6334599;22;20009;-87
2022/06/18 21:41:43;;;;;;;12.38;4.50;;;;;;;21.76;60.51;101376.50;6334455;22;19999;-87
2022/06/18 21:44:08;;;;;;;7.30;3.70;;;;;;;21.77;60.51;101363.69;6332314;22;20010;-86
2022/06/18 21:46:38;;;;;;;5.63;4.13;;;;;;;21.76;60.41;101367.53;6335096;22;20103;-86
2022/06/18 21:49:05;;;;;;;7.50;4.40;;;;;;;21.75;60.37;101369.44;6333722;22;20501;-86
2022/06/18 21:51:34;;;;;;;7.25;4.45;;;;;;;21.73;60.76;101371.69;6334945;22;20026;-86
2022/06/18 21:54:00;;;;;;;10.23;6.82;;;;;;;21.73;60.83;101377.13;6333460;22;20006;-85
2022/06/18 21:56:26;;;;;;;10.65;6.30;;;;;;;21.69;60.79;101374.19;6332865;22;19991;-86
2022/06/18 21:58:53;;;;;;;9.25;6.10;;;;;;;21.67;61.03;101376.41;6333908;22;20013;-86
2022/06/18 22:01:19;;;;;;;8.02;6.82;;;;;;;21.66;61.19;101372.09;6335495;22;20319;-87
2022/06/18 22:03:45;;;;;;;12.35;4.93;;;;;;;21.65;60.96;101386.03;6333837;22;20002;-87
2022/06/18 22:06:11;;;;;;;8.10;3.90;;;;;;;21.64;61.41;101381.69;6334122;22;20006;-88
2022/06/18 22:08:37;;;;;;;7.53;4.28;;;;;;;21.60;61.29;101378.78;6333095;22;19995;-85
2022/06/18 22:11:08;;;;;;;7.13;4.30;;;;;;;21.59;61.72;101381.81;6333859;22;20033;-87
